Time;durP1;ratioP1;P1;durP2;ratioP2;P2;SDS_P1;SDS_P2;PMS_P1;PMS_P2;Temp;Humidity;BMP_temperature;BMP_pressure;BME280_temperature;BME280_humidity;BME280_pressure;Samples;Min_cycle;Max_cycle;Signal;HPM_P1;HPM_P2
2022/08/20 00:00:26;;;;;;;3.65;3.45;;;;;;;;;;5115894;27;20201;-59
2022/08/20 00:03:17;;;;;;;3.35;3.10;;;;;;;;;;5111141;27;20593;-58
2022/08/20 00:06:07;;;;;;;3.90;3.70;;;;;;;;;;5092926;28;20612;-59
2022/08/20 00:08:54;;;;;;;3.55;3.35;;;;;;;;;;5099169;28;20198;-59
2022/08/20 00:11:42;;;;;;;3.63;3.42;;;;;;;;;;5093080;28;20213;-59
2022/08/20 00:14:29;;;;;;;3.65;3.50;;;;;;;;;;5092441;28;20293;-58
2022/08/20 00:17:16;;;;;;;3.53;3.17;;;;;;;;;;5094902;28;20271;-59
2022/08/20 00:20:05;;;;;;;4.00;3.80;;;;;;;;;;5099519;28;20626;-58
2022/08/20 00:22:52;;;;;;;3.72;3.50;;;;;;;;;;5079258;28;20648;-59
2022/08/20 00:25:39;;;;;;;3.70;3.50;;;;;;;;;;5099198;28;20281;-58
2022/08/20 00:28:27;;;;;;;3.70;3.50;;;;;;;;;;5088662;28;20206;-59
2022/08/20 00:31:18;;;;;;;3.85;3.65;;;;;;;;;;5090237;28;20206;-58
2022/08/20 00:34:04;;;;;;;3.80;3.60;;;;;;;;;;5084091;28;20578;-59
2022/08/20 00:36:51;;;;;;;3.30;3.20;;;;;;;;;;5094836;28;20303;-59
2022/08/20 00:39:38;;;;;;;3.30;3.20;;;;;;;;;;5095513;28;20225;-59
2022/08/20 00:42:25;;;;;;;3.40;3.30;;;;;;;;;;5098453;28;20284;-59
2022/08/20 00:45:15;;;;;;;3.80;3.60;;;;;;;;;;5086381;28;20285;-59
2022/08/20 00:48:04;;;;;;;3.40;3.30;;;;;;;;;;5091665;28;20220;-58
2022/08/20 00:50:52;;;;;;;3.28;3.10;;;;;;;;;;5085123;28;20277;-58
2022/08/20 00:53:39;;;;;;;3.30;3.10;;;;;;;;;;5086929;28;20207;-58
2022/08/20 00:56:26;;;;;;;3.50;3.30;;;;;;;;;;5097278;28;20221;-59
2022/08/20 00:59:17;;;;;;;3.17;3.08;;;;;;;;;;5090005;28;20776;-58
2022/08/20 01:02:09;;;;;;;3.63;3.42;;;;;;;;;;5089365;28;20214;-62
2022/08/20 01:04:57;;;;;;;3.40;3.22;;;;;;;;;;5095006;28;20240;-62
2022/08/20 01:07:45;;;;;;;3.55;3.35;;;;;;;;;;5115638;27;20660;-62
2022/08/20 01:10:35;;;;;;;3.22;3.13;;;;;;;;;;5105925;27;20665;-62
2022/08/20 01:13:24;;;;;;;3.15;3.05;;;;;;;;;;5113478;27;20204;-62
2022/08/20 01:16:18;;;;;;;3.55;3.35;;;;;;;;;;5113722;27;20284;-62
2022/08/20 01:19:09;;;;;;;3.10;3.00;;;;;;;;;;5109739;27;20305;-62
2022/08/20 01:21:58;;;;;;;3.13;3.03;;;;;;;;;;5101904;27;20297;-62
2022/08/20 01:24:44;;;;;;;3.13;3.00;;;;;;;;;;5120243;27;20733;-62
2022/08/20 01:27:33;;;;;;;3.28;3.15;;;;;;;;;;5109919;27;20278;-62
2022/08/20 01:30:20;;;;;;;3.20;3.00;;;;;;;;;;5119415;27;20204;-62
2022/08/20 01:33:07;;;;;;;2.92;2.83;;;;;;;;;;5101024;27;20361;-62
2022/08/20 01:35:54;;;;;;;3.42;3.22;;;;;;;;;;5119603;27;20212;-62
2022/08/20 01:38:42;;;;;;;3.17;3.03;;;;;;;;;;5111340;27;20229;-63
2022/08/20 01:41:42;;;;;;;3.20;3.00;;;;;;;;;;5119499;27;20251;-62
2022/08/20 01:44:31;;;;;;;3.20;3.10;;;;;;;;;;5101921;28;20657;-62
2022/08/20 01:47:22;;;;;;;2.92;2.83;;;;;;;;;;5117932;27;20236;-61
2022/08/20 01:50:17;;;;;;;2.97;2.88;;;;;;;;;;5099185;27;20216;-62
2022/08/20 01:53:11;;;;;;;3.22;3.03;;;;;;;;;;5122191;27;20216;-62
2022/08/20 01:55:58;;;;;;;3.50;3.30;;;;;;;;;;5118908;27;20544;-62
2022/08/20 01:58:50;;;;;;;3.15;2.95;;;;;;;;;;5119341;28;20194;-62
2022/08/20 02:01:40;;;;;;;3.25;3.15;;;;;;;;;;5111441;28;20265;-62
2022/08/20 02:04:27;;;;;;;2.95;2.85;;;;;;;;;;5108109;28;20290;-61
2022/08/20 02:07:17;;;;;;;3.17;2.97;;;;;;;;;;5115732;28;20216;-62
2022/08/20 02:10:12;;;;;;;3.30;3.10;;;;;;;;;;5113051;28;20205;-61
2022/08/20 02:12:59;;;;;;;3.03;2.88;;;;;;;;;;5114961;28;20215;-62
2022/08/20 02:15:46;;;;;;;3.00;2.90;;;;;;;;;;5099690;28;20280;-62
2022/08/20 02:18:34;;;;;;;3.25;3.08;;;;;;;;;;5118038;28;20208;-62
2022/08/20 02:21:22;;;;;;;2.90;2.78;;;;;;;;;;5106042;28;20212;-62
2022/08/20 02:24:10;;;;;;;2.90;2.80;;;;;;;;;;5124237;27;20220;-62
2022/08/20 02:26:57;;;;;;;2.95;2.78;;;;;;;;;;5118320;27;20699;-62
2022/08/20 02:29:44;;;;;;;2.83;2.72;;;;;;;;;;5110738;28;20213;-62
2022/08/20 02:32:31;;;;;;;2.75;2.65;;;;;;;;;;5106899;27;20212;-62
2022/08/20 02:35:20;;;;;;;2.90;2.80;;;;;;;;;;5124401;27;20575;-62
2022/08/20 02:38:07;;;;;;;3.00;2.90;;;;;;;;;;5112893;27;20588;-62
2022/08/20 02:40:54;;;;;;;2.92;2.83;;;;;;;;;;5115802;27;20312;-62
2022/08/20 02:43:43;;;;;;;2.70;2.60;;;;;;;;;;5098788;28;20200;-62
2022/08/20 02:46:30;;;;;;;2.60;2.50;;;;;;;;;;5118435;27;20668;-62
2022/08/20 02:49:18;;;;;;;3.03;2.90;;;;;;;;;;5109528;27;20213;-62
2022/08/20 02:52:06;;;;;;;2.65;2.55;;;;;;;;;;5120291;27;20197;-62
2022/08/20 02:54:53;;;;;;;2.65;2.55;;;;;;;;;;5104728;27;20214;-61
2022/08/20 02:57:42;;;;;;;2.40;2.30;;;;;;;;;;5122752;27;20230;-62
2022/08/20 03:00:31;;;;;;;2.60;2.50;;;;;;;;;;5099470;27;20221;-62
2022/08/20 03:03:21;;;;;;;2.50;2.40;;;;;;;;;;5122116;27;20287;-62
2022/08/20 03:06:11;;;;;;;3.20;3.00;;;;;;;;;;5112201;27;20424;-62
2022/08/20 03:08:59;;;;;;;2.72;2.63;;;;;;;;;;5121204;27;20204;-62
2022/08/20 03:11:46;;;;;;;2.60;2.50;;;;;;;;;;5117011;27;20223;-62
2022/08/20 03:14:34;;;;;;;2.50;2.40;;;;;;;;;;5117115;27;20217;-62
2022/08/20 03:17:20;;;;;;;2.60;2.50;;;;;;;;;;5113104;27;20697;-62
2022/08/20 03:20:09;;;;;;;2.50;2.40;;;;;;;;;;5121275;27;20232;-62
2022/08/20 03:22:56;;;;;;;2.50;2.40;;;;;;;;;;5109705;27;20261;-62
2022/08/20 03:25:45;;;;;;;2.63;2.42;;;;;;;;;;5109670;27;20242;-63
2022/08/20 03:28:32;;;;;;;2.67;2.58;;;;;;;;;;5120353;27;20687;-62
2022/08/20 03:31:19;;;;;;;2.97;2.78;;;;;;;;;;5103816;27;20205;-62
2022/08/20 03:34:07;;;;;;;2.20;2.10;;;;;;;;;;5121918;27;20212;-62
2022/08/20 03:36:54;;;;;;;2.40;2.30;;;;;;;;;;5109203;27;20210;-61
2022/08/20 03:39:41;;;;;;;2.55;2.45;;;;;;;;;;5118408;27;20229;-61
2022/08/20 03:42:30;;;;;;;2.40;2.30;;;;;;;;;;5108549;27;20691;-62
2022/08/20 03:45:17;;;;;;;1.90;1.90;;;;;;;;;;5121811;27;20737;-62
2022/08/20 03:48:06;;;;;;;2.50;2.40;;;;;;;;;;5117461;27;20220;-62
2022/08/20 03:50:54;;;;;;;2.15;2.05;;;;;;;;;;5120673;27;20217;-62
2022/08/20 03:53:41;;;;;;;2.08;2.08;;;;;;;;;;5110517;27;20205;-62
2022/08/20 03:56:28;;;;;;;2.13;2.03;;;;;;;;;;5117959;27;20257;-62
2022/08/20 03:59:16;;;;;;;2.10;2.00;;;;;;;;;;5116137;27;20699;-62
2022/08/20 04:02:05;;;;;;;2.05;1.95;;;;;;;;;;5121275;27;20255;-62
2022/08/20 04:04:53;;;;;;;2.40;2.30;;;;;;;;;;5102027;27;20592;-62
2022/08/20 04:07:40;;;;;;;1.85;1.85;;;;;;;;;;5122664;27;20205;-61
2022/08/20 04:10:28;;;;;;;2.40;2.30;;;;;;;;;;5101112;28;20204;-62
2022/08/20 04:13:17;;;;;;;2.28;2.17;;;;;;;;;;5124777;27;20711;-62
2022/08/20 04:16:08;;;;;;;1.80;1.80;;;;;;;;;;5111087;27;20660;-62
2022/08/20 04:18:55;;;;;;;2.40;2.00;;;;;;;;;;5106060;27;20680;-62
2022/08/20 04:21:42;;;;;;;2.15;2.05;;;;;;;;;;5106263;27;20198;-63
2022/08/20 04:24:29;;;;;;;2.15;2.05;;;;;;;;;;5118916;27;20205;-61
2022/08/20 04:27:16;;;;;;;2.03;1.92;;;;;;;;;;5112528;27;20673;-62
2022/08/20 04:30:04;;;;;;;1.92;1.83;;;;;;;;;;5104436;28;20713;-61
2022/08/20 04:32:53;;;;;;;1.70;1.70;;;;;;;;;;5104331;27;20676;-62
2022/08/20 04:35:40;;;;;;;2.20;2.10;;;;;;;;;;5121024;27;20643;-62
2022/08/20 04:38:27;;;;;;;2.00;1.90;;;;;;;;;;5116541;27;20250;-62
2022/08/20 04:41:12;;;;;;;1.60;1.60;;;;;;;;;;5120323;27;20299;-62
2022/08/20 04:44:00;;;;;;;1.98;1.92;;;;;;;;;;5117144;27;20236;-61
2022/08/20 04:46:47;;;;;;;1.70;1.60;;;;;;;;;;5106514;27;20520;-62
2022/08/20 04:49:37;;;;;;;1.90;1.80;;;;;;;;;;5112798;27;20734;-62
2022/08/20 04:52:24;;;;;;;1.90;1.80;;;;;;;;;;5106339;27;20251;-62
2022/08/20 04:55:11;;;;;;;1.70;1.70;;;;;;;;;;5108966;27;20265;-62
2022/08/20 04:58:03;;;;;;;1.80;1.70;;;;;;;;;;5106813;27;20217;-62
2022/08/20 05:00:53;;;;;;;1.85;1.75;;;;;;;;;;5115108;27;20228;-62
2022/08/20 05:03:41;;;;;;;1.75;1.75;;;;;;;;;;5106735;27;20581;-62
2022/08/20 05:06:31;;;;;;;1.88;1.80;;;;;;;;;;5111369;27;20243;-62
2022/08/20 05:09:18;;;;;;;1.73;1.70;;;;;;;;;;5109868;27;20214;-62
2022/08/20 05:12:06;;;;;;;1.92;1.83;;;;;;;;;;5119340;27;20339;-62
2022/08/20 05:14:53;;;;;;;1.80;1.70;;;;;;;;;;5115026;27;20209;-62
2022/08/20 05:17:41;;;;;;;1.50;1.50;;;;;;;;;;5117796;27;20603;-62
2022/08/20 05:20:29;;;;;;;1.55;1.55;;;;;;;;;;5104631;27;20230;-62
2022/08/20 05:23:19;;;;;;;1.73;1.63;;;;;;;;;;5119140;27;20284;-62
2022/08/20 05:26:06;;;;;;;1.52;1.52;;;;;;;;;;5099175;28;20229;-62
2022/08/20 05:28:53;;;;;;;1.40;1.40;;;;;;;;;;5122737;27;20205;-62
2022/08/20 05:31:40;;;;;;;1.30;1.30;;;;;;;;;;5103982;27;20203;-62
2022/08/20 05:34:27;;;;;;;1.58;1.58;;;;;;;;;;5104854;28;20209;-62
2022/08/20 05:37:16;;;;;;;1.20;1.20;;;;;;;;;;5098938;27;20665;-62
2022/08/20 05:40:10;;;;;;;1.50;1.50;;;;;;;;;;5116360;27;20225;-61
2022/08/20 05:42:57;;;;;;;1.20;1.20;;;;;;;;;;5103344;28;20247;-62
2022/08/20 05:45:46;;;;;;;1.30;1.30;;;;;;;;;;5110012;27;20283;-62
2022/08/20 05:48:34;;;;;;;1.40;1.40;;;;;;;;;;5108429;27;20202;-62
2022/08/20 05:51:21;;;;;;;1.30;1.30;;;;;;;;;;5114230;28;20208;-62
2022/08/20 05:54:08;;;;;;;1.40;1.40;;;;;;;;;;5102177;28;20292;-62
2022/08/20 05:56:57;;;;;;;1.50;1.40;;;;;;;;;;5118383;27;20197;-62
2022/08/20 05:59:44;;;;;;;1.40;1.30;;;;;;;;;;5116130;28;20205;-62
2022/08/20 06:05:37;;;;;;;1.30;1.30;;;;;;;;;;5098129;28;20229;-62
2022/08/20 06:08:24;;;;;;;1.00;1.00;;;;;;;;;;5114216;28;20544;-62
2022/08/20 06:11:11;;;;;;;1.00;1.00;;;;;;;;;;5118178;28;20197;-62
2022/08/20 06:13:59;;;;;;;1.13;1.13;;;;;;;;;;5104306;28;20209;-63
2022/08/20 06:16:46;;;;;;;1.52;1.42;;;;;;;;;;5116861;28;20273;-62
2022/08/20 06:19:35;;;;;;;1.23;1.13;;;;;;;;;;5110104;28;20658;-61
2022/08/20 06:22:22;;;;;;;1.08;1.08;;;;;;;;;;5119605;28;20206;-62
2022/08/20 06:25:09;;;;;;;1.20;1.20;;;;;;;;;;5106754;28;20205;-62
2022/08/20 06:27:56;;;;;;;1.17;1.17;;;;;;;;;;5122686;28;20217;-62
2022/08/20 06:30:45;;;;;;;1.27;1.27;;;;;;;;;;5112184;28;20206;-62
2022/08/20 06:33:32;;;;;;;1.40;1.30;;;;;;;;;;5111345;28;20281;-62
2022/08/20 06:36:19;;;;;;;0.95;0.95;;;;;;;;;;5111894;28;20277;-62
2022/08/20 06:39:07;;;;;;;1.10;1.10;;;;;;;;;;5117711;28;20202;-62
2022/08/20 06:41:57;;;;;;;0.93;0.93;;;;;;;;;;5101412;28;20221;-62
2022/08/20 06:44:48;;;;;;;0.95;0.95;;;;;;;;;;5119296;28;20289;-62
2022/08/20 06:47:40;;;;;;;0.98;0.98;;;;;;;;;;5102511;28;20227;-63
2022/08/20 06:50:31;;;;;;;1.15;1.10;;;;;;;;;;5115979;28;20197;-62
2022/08/20 06:53:20;;;;;;;1.00;1.00;;;;;;;;;;5099351;28;20208;-62
2022/08/20 06:56:07;;;;;;;0.95;0.95;;;;;;;;;;5115822;28;20350;-62
2022/08/20 06:58:54;;;;;;;0.88;0.88;;;;;;;;;;5105816;28;20206;-62
2022/08/20 07:01:41;;;;;;;1.08;1.08;;;;;;;;;;5102310;28;20236;-62
2022/08/20 07:04:29;;;;;;;3.40;1.08;;;;;;;;;;5098139;28;20230;-62
2022/08/20 07:07:18;;;;;;;1.00;1.00;;;;;;;;;;5116412;27;20201;-62
2022/08/20 07:10:08;;;;;;;1.17;1.17;;;;;;;;;;5115366;27;20212;-62
2022/08/20 07:12:56;;;;;;;1.10;1.10;;;;;;;;;;5112112;27;20209;-62
2022/08/20 07:15:44;;;;;;;1.00;1.00;;;;;;;;;;5112849;27;20714;-62
2022/08/20 07:18:31;;;;;;;0.93;0.93;;;;;;;;;;5115361;27;20311;-61
2022/08/20 07:21:20;;;;;;;1.00;1.00;;;;;;;;;;5109989;27;20229;-60
2022/08/20 07:24:08;;;;;;;0.65;0.65;;;;;;;;;;5106075;27;20202;-61
2022/08/20 07:26:55;;;;;;;0.90;0.90;;;;;;;;;;5113467;27;20554;-61
2022/08/20 07:32:47;;;;;;;1.38;0.80;;;;;;;;;;5110802;27;20198;-60
2022/08/20 07:35:34;;;;;;;0.65;0.65;;;;;;;;;;5111004;27;20205;-61
2022/08/20 07:38:25;;;;;;;1.40;0.90;;;;;;;;;;5114231;27;20204;-61
2022/08/20 07:41:13;;;;;;;0.73;0.70;;;;;;;;;;5105037;27;20227;-61
2022/08/20 07:44:00;;;;;;;0.73;0.73;;;;;;;;;;5120362;27;20201;-61
2022/08/20 07:46:47;;;;;;;0.52;0.52;;;;;;;;;;5111619;27;20201;-61
2022/08/20 07:49:38;;;;;;;0.80;0.80;;;;;;;;;;5121778;27;20201;-61
2022/08/20 07:52:25;;;;;;;0.45;0.45;;;;;;;;;;5107327;27;20209;-63
2022/08/20 07:55:16;;;;;;;0.70;0.70;;;;;;;;;;5110780;27;20247;-61
2022/08/20 07:58:08;;;;;;;0.70;0.70;;;;;;;;;;5115506;27;20209;-61
2022/08/20 08:00:55;;;;;;;0.73;0.73;;;;;;;;;;5119147;27;20542;-61
2022/08/20 08:03:42;;;;;;;0.70;0.70;;;;;;;;;;5103969;27;20214;-61
2022/08/20 08:06:30;;;;;;;0.98;0.60;;;;;;;;;;5121474;27;20363;-61
2022/08/20 08:09:17;;;;;;;0.70;0.70;;;;;;;;;;5107413;27;20211;-60
2022/08/20 08:12:06;;;;;;;0.70;0.70;;;;;;;;;;5118685;27;20201;-61
2022/08/20 08:14:54;;;;;;;0.75;0.75;;;;;;;;;;5108400;27;20210;-61
2022/08/20 08:17:42;;;;;;;1.00;0.75;;;;;;;;;;5105364;27;20582;-61
2022/08/20 08:20:29;;;;;;;0.80;0.80;;;;;;;;;;5108625;27;20205;-61
2022/08/20 08:23:16;;;;;;;0.80;0.80;;;;;;;;;;5116553;27;20217;-60
2022/08/20 08:26:04;;;;;;;0.50;0.50;;;;;;;;;;5097713;27;20241;-60
2022/08/20 08:28:53;;;;;;;0.85;0.85;;;;;;;;;;5111721;27;20292;-61
2022/08/20 08:31:41;;;;;;;0.40;0.40;;;;;;;;;;5116186;27;20250;-60
2022/08/20 08:34:28;;;;;;;0.75;0.75;;;;;;;;;;5115066;27;20266;-60
2022/08/20 08:37:15;;;;;;;0.55;0.55;;;;;;;;;;5118257;27;20224;-61
2022/08/20 08:40:04;;;;;;;0.80;0.80;;;;;;;;;;5113803;27;20238;-60
2022/08/20 08:42:56;;;;;;;0.90;0.90;;;;;;;;;;5106161;27;20202;-60
2022/08/20 08:45:50;;;;;;;0.60;0.60;;;;;;;;;;5116947;27;20661;-62
2022/08/20 08:48:42;;;;;;;0.52;0.50;;;;;;;;;;5120200;27;20267;-63
2022/08/20 08:51:35;;;;;;;0.70;0.70;;;;;;;;;;5115827;27;20307;-62
2022/08/20 08:54:25;;;;;;;0.50;0.50;;;;;;;;;;5119891;27;20213;-63
2022/08/20 08:57:12;;;;;;;1.27;0.88;;;;;;;;;;5116492;27;20446;-63
2022/08/20 09:00:05;;;;;;;0.75;0.75;;;;;;;;;;5121608;27;20209;-62
2022/08/20 09:03:01;;;;;;;0.80;0.80;;;;;;;;;;5110006;27;20226;-63
2022/08/20 09:05:51;;;;;;;0.80;0.80;;;;;;;;;;5111273;27;20739;-63
2022/08/20 09:08:45;;;;;;;0.70;0.70;;;;;;;;;;5101455;27;20202;-62
2022/08/20 09:11:45;;;;;;;0.80;0.80;;;;;;;;;;5116064;27;20321;-63
2022/08/20 09:14:33;;;;;;;0.68;0.68;;;;;;;;;;5112232;27;20281;-62
2022/08/20 09:17:22;;;;;;;0.47;0.47;;;;;;;;;;5114871;27;20237;-62
2022/08/20 09:20:11;;;;;;;1.00;0.80;;;;;;;;;;5112100;27;20202;-62
2022/08/20 09:22:58;;;;;;;0.65;0.65;;;;;;;;;;5112606;27;20237;-63
2022/08/20 09:25:45;;;;;;;0.70;0.70;;;;;;;;;;5116170;27;20280;-63
2022/08/20 09:28:32;;;;;;;1.30;0.85;;;;;;;;;;5107481;27;20209;-63
2022/08/20 09:31:19;;;;;;;0.80;0.80;;;;;;;;;;5107340;27;20242;-62
2022/08/20 09:34:06;;;;;;;1.20;1.00;;;;;;;;;;5119354;27;20245;-62
2022/08/20 09:36:54;;;;;;;0.68;0.68;;;;;;;;;;5112961;27;20468;-62
2022/08/20 09:39:42;;;;;;;0.98;0.98;;;;;;;;;;5115423;27;20271;-62
2022/08/20 09:42:30;;;;;;;1.08;0.73;;;;;;;;;;5115554;27;20229;-63
2022/08/20 09:45:19;;;;;;;1.48;0.80;;;;;;;;;;5112714;27;20326;-62
2022/08/20 09:48:05;;;;;;;1.20;0.77;;;;;;;;;;5111246;27;20205;-62
2022/08/20 09:50:53;;;;;;;1.52;0.65;;;;;;;;;;5105909;28;21134;-62
2022/08/20 09:53:42;;;;;;;0.75;0.75;;;;;;;;;;5108500;27;20201;-62
2022/08/20 09:56:32;;;;;;;1.65;0.77;;;;;;;;;;5101499;28;20259;-62
2022/08/20 09:59:19;;;;;;;0.85;0.63;;;;;;;;;;5119566;27;20434;-62
2022/08/20 10:02:06;;;;;;;0.70;0.52;;;;;;;;;;5109404;28;20257;-63
2022/08/20 10:04:53;;;;;;;0.80;0.60;;;;;;;;;;5103968;28;20274;-62
2022/08/20 10:07:41;;;;;;;0.90;0.82;;;;;;;;;;5102464;28;20230;-62
2022/08/20 10:10:29;;;;;;;0.65;0.60;;;;;;;;;;5117382;28;20219;-62
2022/08/20 10:13:16;;;;;;;1.92;0.90;;;;;;;;;;5106863;28;20212;-63
2022/08/20 10:16:04;;;;;;;0.70;0.70;;;;;;;;;;5110393;28;20275;-63
2022/08/20 10:18:51;;;;;;;1.30;0.93;;;;;;;;;;5100048;28;20210;-63
2022/08/20 10:21:38;;;;;;;0.82;0.70;;;;;;;;;;5117419;28;20362;-63
2022/08/20 10:24:26;;;;;;;0.77;0.70;;;;;;;;;;5112121;28;20209;-62
2022/08/20 10:27:15;;;;;;;0.95;0.73;;;;;;;;;;5121838;28;20206;-63
2022/08/20 10:30:02;;;;;;;0.80;0.80;;;;;;;;;;5106688;28;20317;-62
2022/08/20 10:32:49;;;;;;;0.93;0.93;;;;;;;;;;5105763;28;20198;-63
2022/08/20 10:35:36;;;;;;;0.80;0.80;;;;;;;;;;5105980;28;20206;-62
2022/08/20 10:38:23;;;;;;;0.77;0.77;;;;;;;;;;5114250;28;20201;-63
2022/08/20 10:41:10;;;;;;;0.60;0.60;;;;;;;;;;5111461;27;20224;-63
2022/08/20 10:43:59;;;;;;;0.63;0.60;;;;;;;;;;5113058;27;20209;-63
2022/08/20 10:46:46;;;;;;;1.17;0.68;;;;;;;;;;5105921;27;20691;-63
2022/08/20 10:49:34;;;;;;;0.95;0.95;;;;;;;;;;5122383;27;20213;-63
2022/08/20 10:52:21;;;;;;;1.85;0.93;;;;;;;;;;5108902;27;20220;-62
2022/08/20 10:55:09;;;;;;;1.38;0.75;;;;;;;;;;5114564;27;20201;-62
2022/08/20 10:57:56;;;;;;;1.02;0.93;;;;;;;;;;5114558;27;20202;-63
2022/08/20 11:00:46;;;;;;;0.93;0.80;;;;;;;;;;5121081;27;20202;-63
2022/08/20 11:03:33;;;;;;;0.90;0.73;;;;;;;;;;5110959;27;20198;-62
2022/08/20 11:06:21;;;;;;;0.75;0.70;;;;;;;;;;5088750;28;20265;-62
2022/08/20 11:09:07;;;;;;;0.80;0.80;;;;;;;;;;5094495;28;20294;-63
2022/08/20 11:11:54;;;;;;;0.75;0.75;;;;;;;;;;5094742;28;20210;-63
2022/08/20 11:14:41;;;;;;;1.10;0.80;;;;;;;;;;5095961;28;20783;-62
2022/08/20 11:17:32;;;;;;;1.50;0.98;;;;;;;;;;5094727;28;20210;-63
2022/08/20 11:20:22;;;;;;;1.95;0.98;;;;;;;;;;5091026;28;20214;-62
2022/08/20 11:23:09;;;;;;;1.00;0.60;;;;;;;;;;5090682;28;20255;-63
2022/08/20 11:25:56;;;;;;;0.60;0.60;;;;;;;;;;5097879;28;20209;-62
2022/08/20 11:28:43;;;;;;;0.73;0.73;;;;;;;;;;5096729;28;20206;-62
2022/08/20 11:31:30;;;;;;;0.63;0.60;;;;;;;;;;5092388;28;20202;-63
2022/08/20 11:34:19;;;;;;;0.90;0.90;;;;;;;;;;5095155;28;20546;-62
2022/08/20 11:37:05;;;;;;;1.02;0.88;;;;;;;;;;5103945;28;20214;-62
2022/08/20 11:39:52;;;;;;;0.70;0.70;;;;;;;;;;5083520;28;20218;-63
2022/08/20 11:42:40;;;;;;;0.93;0.70;;;;;;;;;;5105662;28;20221;-63
2022/08/20 11:45:27;;;;;;;1.35;0.90;;;;;;;;;;5089375;28;20207;-63
2022/08/20 11:48:14;;;;;;;0.60;0.60;;;;;;;;;;5099855;28;20205;-63
2022/08/20 11:51:04;;;;;;;0.55;0.50;;;;;;;;;;5084235;28;20214;-63
2022/08/20 11:53:51;;;;;;;0.82;0.73;;;;;;;;;;5099466;28;20333;-63
2022/08/20 11:56:37;;;;;;;1.05;0.77;;;;;;;;;;5087153;28;20316;-63
2022/08/20 11:59:25;;;;;;;1.48;0.70;;;;;;;;;;5093446;28;20221;-63
2022/08/20 12:02:12;;;;;;;1.73;1.10;;;;;;;;;;5087237;28;20226;-62
2022/08/20 12:04:58;;;;;;;1.00;0.80;;;;;;;;;;5105165;27;20233;-62
2022/08/20 12:07:47;;;;;;;0.68;0.68;;;;;;;;;;5118456;27;20201;-63
2022/08/20 12:10:34;;;;;;;0.50;0.50;;;;;;;;;;5118597;27;20220;-62
2022/08/20 12:13:21;;;;;;;0.68;0.60;;;;;;;;;;5109315;27;20216;-62
2022/08/20 12:16:08;;;;;;;0.60;0.60;;;;;;;;;;5118217;27;20660;-63
2022/08/20 12:18:55;;;;;;;1.65;0.73;;;;;;;;;;5107228;27;20220;-63
2022/08/20 12:21:42;;;;;;;1.08;0.65;;;;;;;;;;5121995;27;20581;-62
2022/08/20 12:24:30;;;;;;;0.60;0.60;;;;;;;;;;5101412;27;20201;-62
2022/08/20 12:27:20;;;;;;;0.60;0.60;;;;;;;;;;5122185;27;20204;-62
2022/08/20 12:30:10;;;;;;;1.10;0.60;;;;;;;;;;5118392;27;20214;-62
2022/08/20 12:32:57;;;;;;;1.52;0.90;;;;;;;;;;5115461;27;20247;-63
2022/08/20 12:35:44;;;;;;;1.40;0.95;;;;;;;;;;5114357;27;20216;-62
2022/08/20 12:38:31;;;;;;;1.65;0.80;;;;;;;;;;5108987;27;20240;-62
2022/08/20 12:41:19;;;;;;;0.60;0.60;;;;;;;;;;5111097;27;20205;-62
2022/08/20 12:44:08;;;;;;;1.15;0.70;;;;;;;;;;5109839;27;20205;-62
2022/08/20 12:47:05;;;;;;;0.82;0.77;;;;;;;;;;5112349;27;20233;-63
2022/08/20 12:49:55;;;;;;;1.90;0.70;;;;;;;;;;5115325;27;20206;-62
2022/08/20 12:52:43;;;;;;;0.93;0.63;;;;;;;;;;5115403;27;20197;-62
2022/08/20 12:55:30;;;;;;;1.40;0.88;;;;;;;;;;5116123;27;20197;-63
2022/08/20 12:58:19;;;;;;;0.63;0.38;;;;;;;;;;5118795;27;20259;-62
2022/08/20 13:01:06;;;;;;;1.48;0.80;;;;;;;;;;5098262;28;20217;-62
2022/08/20 13:03:53;;;;;;;1.38;0.70;;;;;;;;;;5121011;27;20452;-62
2022/08/20 13:06:40;;;;;;;0.52;0.50;;;;;;;;;;5100379;27;20276;-62
2022/08/20 13:09:27;;;;;;;0.70;0.70;;;;;;;;;;5117279;27;20208;-64
2022/08/20 13:12:14;;;;;;;1.20;0.63;;;;;;;;;;5097903;28;20224;-62
2022/08/20 13:15:02;;;;;;;1.05;0.77;;;;;;;;;;5120020;27;20584;-62
2022/08/20 13:17:52;;;;;;;1.45;0.70;;;;;;;;;;5098147;28;20570;-63
2022/08/20 13:20:39;;;;;;;0.40;0.38;;;;;;;;;;5119652;27;20202;-62
2022/08/20 13:23:26;;;;;;;0.68;0.60;;;;;;;;;;5102458;27;20237;-62
2022/08/20 13:26:13;;;;;;;0.47;0.47;;;;;;;;;;5113772;27;20678;-62
2022/08/20 13:29:00;;;;;;;0.93;0.52;;;;;;;;;;5103836;27;20213;-62
2022/08/20 13:31:48;;;;;;;0.50;0.50;;;;;;;;;;5120515;27;20197;-62
2022/08/20 13:34:35;;;;;;;0.82;0.75;;;;;;;;;;5101622;28;20218;-62
2022/08/20 13:37:25;;;;;;;0.95;0.63;;;;;;;;;;5114173;27;20197;-62
2022/08/20 13:40:12;;;;;;;1.00;0.60;;;;;;;;;;5114448;27;20278;-62
2022/08/20 13:42:59;;;;;;;0.50;0.40;;;;;;;;;;5118927;27;20231;-62
2022/08/20 13:45:46;;;;;;;0.55;0.50;;;;;;;;;;5110080;27;20575;-63
2022/08/20 13:48:34;;;;;;;1.48;0.80;;;;;;;;;;5106489;28;20264;-62
2022/08/20 13:51:21;;;;;;;0.63;0.60;;;;;;;;;;5106700;27;20680;-62
2022/08/20 13:54:08;;;;;;;2.17;0.82;;;;;;;;;;5108450;27;20206;-62
2022/08/20 13:57:04;;;;;;;1.17;0.75;;;;;;;;;;5115284;27;20201;-64
2022/08/20 13:59:54;;;;;;;1.10;0.65;;;;;;;;;;5114792;27;20216;-62
2022/08/20 14:02:42;;;;;;;0.75;0.50;;;;;;;;;;5112406;28;20740;-62
2022/08/20 14:05:31;;;;;;;0.43;0.40;;;;;;;;;;5111992;28;20322;-62
2022/08/20 14:08:20;;;;;;;0.57;0.57;;;;;;;;;;5118457;28;20216;-62
2022/08/20 14:11:07;;;;;;;0.63;0.50;;;;;;;;;;5114511;28;20208;-62
2022/08/20 14:13:54;;;;;;;0.77;0.60;;;;;;;;;;5110309;28;20569;-62
2022/08/20 14:16:41;;;;;;;0.38;0.35;;;;;;;;;;5108632;27;20656;-62
2022/08/20 14:19:28;;;;;;;0.57;0.57;;;;;;;;;;5116257;27;20678;-62
2022/08/20 14:22:17;;;;;;;0.70;0.50;;;;;;;;;;5101866;28;20206;-62
2022/08/20 14:25:05;;;;;;;0.43;0.43;;;;;;;;;;5122516;27;20206;-62
2022/08/20 14:27:53;;;;;;;0.68;0.60;;;;;;;;;;5103339;28;20201;-62
2022/08/20 14:30:41;;;;;;;1.05;0.60;;;;;;;;;;5120178;27;20232;-62
2022/08/20 14:33:27;;;;;;;1.38;0.90;;;;;;;;;;5108886;27;20199;-62
2022/08/20 14:36:14;;;;;;;0.57;0.57;;;;;;;;;;5117885;27;20212;-62
2022/08/20 14:39:03;;;;;;;1.13;0.50;;;;;;;;;;5106455;27;20289;-62
2022/08/20 14:41:50;;;;;;;1.30;0.50;;;;;;;;;;5118865;27;20217;-62
2022/08/20 14:44:37;;;;;;;1.05;0.55;;;;;;;;;;5113021;27;20211;-62
2022/08/20 14:47:26;;;;;;;0.65;0.65;;;;;;;;;;5122664;27;20205;-62
2022/08/20 14:50:21;;;;;;;0.40;0.40;;;;;;;;;;5100392;27;20285;-62
2022/08/20 14:53:08;;;;;;;0.60;0.50;;;;;;;;;;5122252;27;20649;-62
2022/08/20 14:55:56;;;;;;;0.32;0.32;;;;;;;;;;5114831;27;20216;-62
2022/08/20 14:58:43;;;;;;;0.75;0.40;;;;;;;;;;5123317;27;20650;-62
2022/08/20 15:01:30;;;;;;;0.43;0.40;;;;;;;;;;5113286;27;20204;-62
2022/08/20 15:04:18;;;;;;;0.50;0.50;;;;;;;;;;5121411;27;20237;-62
2022/08/20 15:07:08;;;;;;;0.73;0.50;;;;;;;;;;5104114;27;20268;-62
2022/08/20 15:09:56;;;;;;;0.65;0.57;;;;;;;;;;5111104;27;20209;-62
2022/08/20 15:12:44;;;;;;;0.85;0.50;;;;;;;;;;5118990;27;20250;-62
2022/08/20 15:15:31;;;;;;;1.05;0.60;;;;;;;;;;5116790;27;20560;-62
2022/08/20 15:18:23;;;;;;;1.08;0.50;;;;;;;;;;5121051;27;20208;-62
2022/08/20 15:21:10;;;;;;;0.75;0.60;;;;;;;;;;5116855;27;20780;-62
2022/08/20 15:23:57;;;;;;;0.65;0.63;;;;;;;;;;5118788;27;20228;-62
2022/08/20 15:26:44;;;;;;;0.35;0.30;;;;;;;;;;5112420;27;20221;-62
2022/08/20 15:29:33;;;;;;;0.35;0.35;;;;;;;;;;5113686;27;20202;-62
2022/08/20 15:32:21;;;;;;;0.52;0.40;;;;;;;;;;5117429;27;20581;-62
2022/08/20 15:35:10;;;;;;;0.45;0.45;;;;;;;;;;5116334;27;20205;-62
2022/08/20 15:37:58;;;;;;;0.30;0.30;;;;;;;;;;5105348;27;20293;-62
2022/08/20 15:40:45;;;;;;;0.82;0.47;;;;;;;;;;5120800;27;20206;-62
2022/08/20 15:43:32;;;;;;;1.73;0.63;;;;;;;;;;5115154;27;20275;-62
2022/08/20 15:46:21;;;;;;;0.82;0.70;;;;;;;;;;5120157;27;20243;-62
2022/08/20 15:49:12;;;;;;;0.88;0.55;;;;;;;;;;5107597;27;20211;-62
2022/08/20 15:51:59;;;;;;;0.65;0.65;;;;;;;;;;5119264;27;20206;-62
2022/08/20 15:54:47;;;;;;;1.48;0.35;;;;;;;;;;5102245;27;20206;-62
2022/08/20 15:57:48;;;;;;;0.70;0.60;;;;;;;;;;5114539;27;20205;-62
2022/08/20 16:00:40;;;;;;;1.17;0.60;;;;;;;;;;5108846;27;20202;-62
2022/08/20 16:03:41;;;;;;;0.65;0.65;;;;;;;;;;5121060;27;20232;-62
2022/08/20 16:06:32;;;;;;;1.83;0.77;;;;;;;;;;5087046;28;20228;-62
2022/08/20 16:09:43;;;;;;;0.52;0.38;;;;;;;;;;5093866;28;20210;-62
2022/08/20 16:12:33;;;;;;;1.00;0.40;;;;;;;;;;5091341;28;20868;-62
2022/08/20 16:15:24;;;;;;;0.40;0.40;;;;;;;;;;5085182;28;20207;-62
2022/08/20 16:18:18;;;;;;;0.52;0.50;;;;;;;;;;5089961;28;20238;-62
2022/08/20 16:21:11;;;;;;;0.63;0.60;;;;;;;;;;5089268;28;20202;-62
2022/08/20 16:23:58;;;;;;;0.68;0.50;;;;;;;;;;5094811;28;20233;-62
2022/08/20 16:27:12;;;;;;;0.90;0.47;;;;;;;;;;5083113;28;20666;-62
2022/08/20 16:30:05;;;;;;;0.63;0.40;;;;;;;;;;5085462;28;20688;-62
2022/08/20 16:32:57;;;;;;;0.68;0.57;;;;;;;;;;5084341;28;20209;-62
2022/08/20 16:35:50;;;;;;;0.47;0.47;;;;;;;;;;5091413;28;20205;-62
2022/08/20 16:38:46;;;;;;;1.13;0.70;;;;;;;;;;5078631;28;20209;-62
2022/08/20 16:41:38;;;;;;;0.50;0.40;;;;;;;;;;5084616;28;20723;-62
2022/08/20 16:44:32;;;;;;;0.70;0.70;;;;;;;;;;5079819;28;20228;-62
2022/08/20 16:47:25;;;;;;;0.77;0.60;;;;;;;;;;5095815;28;20198;-62
2022/08/20 16:50:16;;;;;;;0.52;0.47;;;;;;;;;;5080171;28;20213;-62
2022/08/20 16:53:03;;;;;;;0.73;0.50;;;;;;;;;;5095297;28;20202;-62
2022/08/20 16:55:52;;;;;;;0.60;0.57;;;;;;;;;;5093385;28;20657;-62